sensor_id;sensor_type;location;lat;lon;timestamp;pressure;altitude;pressure_sealevel;temperature;humidity
34081;BME280;20358;50.272;19.026;2022-12-29T00:00:03;98265.59;;;2.28;50.29
34081;BME280;20358;50.272;19.026;2022-12-29T00:03:16;98257.25;;;2.20;49.62
34081;BME280;20358;50.272;19.026;2022-12-29T00:06:22;98255.69;;;2.16;49.77
34081;BME280;20358;50.272;19.026;2022-12-29T00:09:28;98256.59;;;2.15;51.41
34081;BME280;20358;50.272;19.026;2022-12-29T00:12:35;98255.75;;;2.14;50.08
34081;BME280;20358;50.272;19.026;2022-12-29T00:15:59;98254.25;;;2.09;51.12
34081;BME280;20358;50.272;19.026;2022-12-29T00:19:05;98233.94;;;1.97;50.49
34081;BME280;20358;50.272;19.026;2022-12-29T00:22:31;98247.50;;;2.05;51.45
34081;BME280;20358;50.272;19.026;2022-12-29T00:25:53;98242.28;;;2.05;50.55
34081;BME280;20358;50.272;19.026;2022-12-29T00:29:15;98237.06;;;2.05;50.27
34081;BME280;20358;50.272;19.026;2022-12-29T00:32:39;98242.31;;;2.03;50.33
34081;BME280;20358;50.272;19.026;2022-12-29T00:36:03;98238.06;;;2.02;50.96
34081;BME280;20358;50.272;19.026;2022-12-29T00:39:17;98247.66;;;2.00;50.22
34081;BME280;20358;50.272;19.026;2022-12-29T00:42:39;98231.22;;;2.00;51.68
34081;BME280;20358;50.272;19.026;2022-12-29T00:46:01;98235.84;;;1.92;51.87
34081;BME280;20358;50.272;19.026;2022-12-29T00:49:12;98213.19;;;1.94;51.46
34081;BME280;20358;50.272;19.026;2022-12-29T00:52:37;98213.09;;;1.97;52.07
34081;BME280;20358;50.272;19.026;2022-12-29T00:55:44;98234.25;;;2.09;51.09
34081;BME280;20358;50.272;19.026;2022-12-29T00:58:50;98235.25;;;2.07;50.45
34081;BME280;20358;50.272;19.026;2022-12-29T01:05:24;98223.25;;;2.03;50.95
34081;BME280;20358;50.272;19.026;2022-12-29T01:08:30;98227.69;;;2.01;50.48
34081;BME280;20358;50.272;19.026;2022-12-29T01:11:38;98223.94;;;2.08;51.60
34081;BME280;20358;50.272;19.026;2022-12-29T01:14:42;98221.97;;;2.13;51.44
34081;BME280;20358;50.272;19.026;2022-12-29T01:17:48;98224.41;;;2.16;51.75
34081;BME280;20358;50.272;19.026;2022-12-29T01:21:02;98226.03;;;2.18;51.65
34081;BME280;20358;50.272;19.026;2022-12-29T01:24:10;98223.31;;;2.21;51.37
34081;BME280;20358;50.272;19.026;2022-12-29T01:27:19;98219.09;;;2.19;51.75
34081;BME280;20358;50.272;19.026;2022-12-29T01:30:25;98217.53;;;2.15;51.65
34081;BME280;20358;50.272;19.026;2022-12-29T01:33:30;98221.16;;;2.11;51.96
34081;BME280;20358;50.272;19.026;2022-12-29T01:36:39;98225.69;;;2.07;52.01
34081;BME280;20358;50.272;19.026;2022-12-29T01:39:46;98228.44;;;2.03;51.51
34081;BME280;20358;50.272;19.026;2022-12-29T01:42:52;98246.16;;;1.95;51.82
34081;BME280;20358;50.272;19.026;2022-12-29T01:45:58;98250.41;;;1.97;51.23
34081;BME280;20358;50.272;19.026;2022-12-29T01:49:11;98250.56;;;1.93;52.19
34081;BME280;20358;50.272;19.026;2022-12-29T01:52:29;98243.00;;;1.87;52.40
34081;BME280;20358;50.272;19.026;2022-12-29T01:55:44;98239.59;;;1.84;51.31
34081;BME280;20358;50.272;19.026;2022-12-29T01:59:01;98227.50;;;1.83;51.76
34081;BME280;20358;50.272;19.026;2022-12-29T02:02:11;98237.81;;;1.87;51.65
34081;BME280;20358;50.272;19.026;2022-12-29T02:05:26;98221.22;;;1.89;52.55
34081;BME280;20358;50.272;19.026;2022-12-29T02:08:40;98216.31;;;1.81;52.33
34081;BME280;20358;50.272;19.026;2022-12-29T02:11:48;98213.31;;;1.91;51.92
34081;BME280;20358;50.272;19.026;2022-12-29T02:14:59;98207.22;;;1.92;52.76
34081;BME280;20358;50.272;19.026;2022-12-29T02:18:20;98205.22;;;1.98;52.01
34081;BME280;20358;50.272;19.026;2022-12-29T02:21:48;98206.63;;;2.05;51.74
34081;BME280;20358;50.272;19.026;2022-12-29T02:25:35;98202.28;;;2.06;52.34
34081;BME280;20358;50.272;19.026;2022-12-29T02:33:09;98196.03;;;2.10;52.65
34081;BME280;20358;50.272;19.026;2022-12-29T02:36:33;98198.66;;;2.10;51.19
34081;BME280;20358;50.272;19.026;2022-12-29T02:39:56;98205.81;;;2.05;52.38
34081;BME280;20358;50.272;19.026;2022-12-29T02:43:18;98192.38;;;1.94;52.35
34081;BME280;20358;50.272;19.026;2022-12-29T02:46:36;98186.75;;;1.82;52.19
34081;BME280;20358;50.272;19.026;2022-12-29T02:49:59;98191.19;;;1.80;52.02
34081;BME280;20358;50.272;19.026;2022-12-29T02:53:15;98190.34;;;1.80;53.10
34081;BME280;20358;50.272;19.026;2022-12-29T02:56:44;98180.66;;;1.83;52.17
34081;BME280;20358;50.272;19.026;2022-12-29T02:59:52;98182.19;;;1.88;51.97
34081;BME280;20358;50.272;19.026;2022-12-29T03:03:16;98177.59;;;1.94;51.90
34081;BME280;20358;50.272;19.026;2022-12-29T03:06:50;98196.03;;;1.90;51.90
34081;BME280;20358;50.272;19.026;2022-12-29T03:10:11;98193.22;;;1.94;52.30
34081;BME280;20358;50.272;19.026;2022-12-29T03:13:32;98186.78;;;2.03;51.41
34081;BME280;20358;50.272;19.026;2022-12-29T03:17:06;98187.94;;;2.16;51.68
34081;BME280;20358;50.272;19.026;2022-12-29T03:20:22;98153.00;;;2.01;51.56
34081;BME280;20358;50.272;19.026;2022-12-29T03:23:36;98179.09;;;2.20;51.10
34081;BME280;20358;50.272;19.026;2022-12-29T03:26:48;98179.09;;;2.20;52.43
34081;BME280;20358;50.272;19.026;2022-12-29T03:30:01;98185.97;;;2.21;51.89
34081;BME280;20358;50.272;19.026;2022-12-29T03:33:13;98184.53;;;2.15;51.75
34081;BME280;20358;50.272;19.026;2022-12-29T03:36:29;98180.47;;;2.08;52.10
34081;BME280;20358;50.272;19.026;2022-12-29T03:39:46;98172.78;;;2.05;51.65
34081;BME280;20358;50.272;19.026;2022-12-29T03:42:53;98171.88;;;2.06;51.62
34081;BME280;20358;50.272;19.026;2022-12-29T03:46:03;98157.34;;;2.01;51.88
34081;BME280;20358;50.272;19.026;2022-12-29T03:49:09;98167.19;;;1.94;52.44
34081;BME280;20358;50.272;19.026;2022-12-29T03:52:15;98154.53;;;1.85;52.49
34081;BME280;20358;50.272;19.026;2022-12-29T03:55:24;98136.75;;;1.74;52.87
34081;BME280;20358;50.272;19.026;2022-12-29T03:58:32;98123.09;;;1.69;52.86
34081;BME280;20358;50.272;19.026;2022-12-29T04:01:46;98132.00;;;1.64;52.96
34081;BME280;20358;50.272;19.026;2022-12-29T04:04:53;98128.63;;;1.62;52.71
34081;BME280;20358;50.272;19.026;2022-12-29T04:07:59;98122.53;;;1.63;53.32
34081;BME280;20358;50.272;19.026;2022-12-29T04:11:08;98115.56;;;1.63;53.91
34081;BME280;20358;50.272;19.026;2022-12-29T04:14:15;98101.91;;;1.58;52.84
34081;BME280;20358;50.272;19.026;2022-12-29T04:17:22;98103.56;;;1.59;53.06
34081;BME280;20358;50.272;19.026;2022-12-29T04:20:28;98108.78;;;1.59;52.99
34081;BME280;20358;50.272;19.026;2022-12-29T04:23:51;98115.94;;;1.54;53.81
34081;BME280;20358;50.272;19.026;2022-12-29T04:26:59;98112.56;;;1.52;53.60
34081;BME280;20358;50.272;19.026;2022-12-29T04:30:53;98113.84;;;1.42;54.45
34081;BME280;20358;50.272;19.026;2022-12-29T04:34:04;98120.06;;;1.38;54.37
34081;BME280;20358;50.272;19.026;2022-12-29T04:37:10;98118.56;;;1.33;54.55
34081;BME280;20358;50.272;19.026;2022-12-29T04:40:16;98016.03;;;0.76;54.56
34081;BME280;20358;50.272;19.026;2022-12-29T04:43:25;98096.28;;;1.27;54.29
34081;BME280;20358;50.272;19.026;2022-12-29T04:46:51;98098.06;;;1.25;54.61
34081;BME280;20358;50.272;19.026;2022-12-29T04:50:26;98096.28;;;1.27;53.75
34081;BME280;20358;50.272;19.026;2022-12-29T04:53:42;98096.28;;;1.27;53.66
34081;BME280;20358;50.272;19.026;2022-12-29T04:56:48;98103.78;;;1.13;54.99
34081;BME280;20358;50.272;19.026;2022-12-29T04:59:58;98106.31;;;1.14;54.61
34081;BME280;20358;50.272;19.026;2022-12-29T05:03:04;98107.16;;;1.15;54.56
34081;BME280;20358;50.272;19.026;2022-12-29T05:06:13;98092.22;;;1.20;54.03
34081;BME280;20358;50.272;19.026;2022-12-29T05:09:21;98094.56;;;1.26;54.98
34081;BME280;20358;50.272;19.026;2022-12-29T05:12:29;98088.75;;;1.41;54.52
34081;BME280;20358;50.272;19.026;2022-12-29T05:15:39;98088.38;;;1.50;53.43
34081;BME280;20358;50.272;19.026;2022-12-29T05:18:46;98087.38;;;1.53;53.26
34081;BME280;20358;50.272;19.026;2022-12-29T05:21:52;98105.28;;;1.60;53.98
34081;BME280;20358;50.272;19.026;2022-12-29T05:24:58;98100.66;;;1.67;53.45
34081;BME280;20358;50.272;19.026;2022-12-29T05:28:05;98098.81;;;1.69;54.15
34081;BME280;20358;50.272;19.026;2022-12-29T05:31:23;98104.03;;;1.69;54.00
34081;BME280;20358;50.272;19.026;2022-12-29T05:34:29;98094.88;;;1.60;53.79
34081;BME280;20358;50.272;19.026;2022-12-29T05:37:35;98078.59;;;1.55;53.18
34081;BME280;20358;50.272;19.026;2022-12-29T05:40:43;98077.56;;;1.59;53.71
34081;BME280;20358;50.272;19.026;2022-12-29T05:44:05;98077.16;;;1.68;54.45
34081;BME280;20358;50.272;19.026;2022-12-29T05:47:29;98071.84;;;1.71;53.47
34081;BME280;20358;50.272;19.026;2022-12-29T05:50:47;98062.31;;;1.70;53.95
34081;BME280;20358;50.272;19.026;2022-12-29T05:53:59;98058.66;;;1.74;54.11
34081;BME280;20358;50.272;19.026;2022-12-29T05:57:05;98071.41;;;1.80;54.05
34081;BME280;20358;50.272;19.026;2022-12-29T06:00:13;98044.50;;;1.61;53.38
34081;BME280;20358;50.272;19.026;2022-12-29T06:03:23;98075.41;;;1.89;53.02
34081;BME280;20358;50.272;19.026;2022-12-29T06:06:30;98064.69;;;1.95;53.62
34081;BME280;20358;50.272;19.026;2022-12-29T06:09:37;98061.00;;;2.01;53.23
34081;BME280;20358;50.272;19.026;2022-12-29T06:12:45;98045.75;;;2.12;53.48
34081;BME280;20358;50.272;19.026;2022-12-29T06:15:51;98039.41;;;2.17;53.92
34081;BME280;20358;50.272;19.026;2022-12-29T06:19:03;98040.75;;;2.26;52.86
34081;BME280;20358;50.272;19.026;2022-12-29T06:22:10;98036.81;;;2.36;53.27
34081;BME280;20358;50.272;19.026;2022-12-29T06:25:18;98025.03;;;2.46;53.21
34081;BME280;20358;50.272;19.026;2022-12-29T06:28:23;98031.78;;;2.50;52.13
34081;BME280;20358;50.272;19.026;2022-12-29T06:31:30;98041.22;;;2.53;52.08
34081;BME280;20358;50.272;19.026;2022-12-29T06:34:38;98043.78;;;2.54;51.81
34081;BME280;20358;50.272;19.026;2022-12-29T06:37:45;98055.88;;;2.55;51.62
34081;BME280;20358;50.272;19.026;2022-12-29T06:40:50;98060.19;;;2.56;51.91
34081;BME280;20358;50.272;19.026;2022-12-29T06:44:12;98065.38;;;2.56;52.79
34081;BME280;20358;50.272;19.026;2022-12-29T06:47:25;98061.09;;;2.55;52.65
34081;BME280;20358;50.272;19.026;2022-12-29T06:50:34;98050.66;;;2.55;52.35
34081;BME280;20358;50.272;19.026;2022-12-29T06:53:40;98043.59;;;2.57;52.11
34081;BME280;20358;50.272;19.026;2022-12-29T06:56:47;98046.88;;;2.62;51.73
34081;BME280;20358;50.272;19.026;2022-12-29T06:59:52;98039.50;;;2.70;52.38
34081;BME280;20358;50.272;19.026;2022-12-29T07:03:00;98035.69;;;2.77;52.38
34081;BME280;20358;50.272;19.026;2022-12-29T07:06:08;98032.09;;;2.80;52.12
34081;BME280;20358;50.272;19.026;2022-12-29T07:09:16;98030.88;;;2.87;51.99
34081;BME280;20358;50.272;19.026;2022-12-29T07:12:21;98033.72;;;2.99;51.88
34081;BME280;20358;50.272;19.026;2022-12-29T07:15:27;98037.75;;;3.24;52.27
34081;BME280;20358;50.272;19.026;2022-12-29T07:18:33;98036.63;;;3.62;51.84
34081;BME280;20358;50.272;19.026;2022-12-29T07:21:43;98028.03;;;4.10;53.74
34081;BME280;20358;50.272;19.026;2022-12-29T07:24:48;98034.13;;;4.73;55.13
34081;BME280;20358;50.272;19.026;2022-12-29T07:27:55;98033.09;;;4.91;54.71
34081;BME280;20358;50.272;19.026;2022-12-29T07:31:00;98040.28;;;5.17;49.09
34081;BME280;20358;50.272;19.026;2022-12-29T07:34:08;98040.16;;;5.05;51.10
34081;BME280;20358;50.272;19.026;2022-12-29T07:37:17;98047.16;;;5.04;48.58
34081;BME280;20358;50.272;19.026;2022-12-29T07:40:23;98046.16;;;4.91;48.70
34081;BME280;20358;50.272;19.026;2022-12-29T07:43:30;98053.22;;;4.75;50.61
34081;BME280;20358;50.272;19.026;2022-12-29T07:46:57;98049.47;;;4.95;54.76
34081;BME280;20358;50.272;19.026;2022-12-29T07:50:04;98059.13;;;5.24;50.43
34081;BME280;20358;50.272;19.026;2022-12-29T07:53:14;98056.91;;;5.32;52.54
34081;BME280;20358;50.272;19.026;2022-12-29T07:56:20;98062.88;;;5.49;50.88
34081;BME280;20358;50.272;19.026;2022-12-29T07:59:26;98063.16;;;5.29;48.27
34081;BME280;20358;50.272;19.026;2022-12-29T08:02:32;98061.59;;;5.11;49.64
34081;BME280;20358;50.272;19.026;2022-12-29T08:05:39;98051.06;;;4.97;48.72
34081;BME280;20358;50.272;19.026;2022-12-29T08:08:47;98038.91;;;4.80;48.91
34081;BME280;20358;50.272;19.026;2022-12-29T08:11:54;98050.06;;;4.84;50.14
34081;BME280;20358;50.272;19.026;2022-12-29T08:15:00;98053.38;;;4.72;49.53
34081;BME280;20358;50.272;19.026;2022-12-29T08:18:06;98046.28;;;4.43;49.78
34081;BME280;20358;50.272;19.026;2022-12-29T08:21:12;98046.75;;;4.34;50.03
34081;BME280;20358;50.272;19.026;2022-12-29T08:24:21;98057.56;;;4.27;50.38
34081;BME280;20358;50.272;19.026;2022-12-29T08:27:27;98051.16;;;4.17;50.38
34081;BME280;20358;50.272;19.026;2022-12-29T08:30:35;98060.22;;;4.10;50.68
34081;BME280;20358;50.272;19.026;2022-12-29T08:33:41;98051.63;;;4.08;51.31
34081;BME280;20358;50.272;19.026;2022-12-29T08:36:48;98064.25;;;4.00;51.26
34081;BME280;20358;50.272;19.026;2022-12-29T08:39:58;98056.06;;;3.91;52.11
34081;BME280;20358;50.272;19.026;2022-12-29T08:43:06;98063.91;;;3.91;52.18
34081;BME280;20358;50.272;19.026;2022-12-29T08:46:16;98066.91;;;3.83;51.48
34081;BME280;20358;50.272;19.026;2022-12-29T08:49:22;98065.97;;;3.84;52.11
34081;BME280;20358;50.272;19.026;2022-12-29T08:52:28;98060.28;;;3.76;52.28
34081;BME280;20358;50.272;19.026;2022-12-29T08:55:37;98066.19;;;3.80;54.37
34081;BME280;20358;50.272;19.026;2022-12-29T08:58:43;98048.09;;;4.09;52.59
34081;BME280;20358;50.272;19.026;2022-12-29T09:01:49;98060.22;;;4.59;54.16
34081;BME280;20358;50.272;19.026;2022-12-29T09:04:55;98070.19;;;5.13;54.19
34081;BME280;20358;50.272;19.026;2022-12-29T09:08:01;98062.19;;;5.16;50.88
34081;BME280;20358;50.272;19.026;2022-12-29T09:11:14;98068.34;;;5.75;54.03
34081;BME280;20358;50.272;19.026;2022-12-29T09:14:22;98069.50;;;6.13;49.26
34081;BME280;20358;50.272;19.026;2022-12-29T09:17:27;98065.22;;;6.12;49.19
34081;BME280;20358;50.272;19.026;2022-12-29T09:20:56;98057.53;;;6.09;48.38
34081;BME280;20358;50.272;19.026;2022-12-29T09:24:02;98056.03;;;5.91;48.51
34081;BME280;20358;50.272;19.026;2022-12-29T09:27:12;98064.59;;;5.65;48.53
34081;BME280;20358;50.272;19.026;2022-12-29T09:30:18;98062.53;;;5.40;49.53
34081;BME280;20358;50.272;19.026;2022-12-29T09:33:26;98065.97;;;5.26;49.70
34081;BME280;20358;50.272;19.026;2022-12-29T09:36:32;98056.84;;;5.18;50.00
34081;BME280;20358;50.272;19.026;2022-12-29T09:39:38;98051.31;;;5.08;50.33
34081;BME280;20358;50.272;19.026;2022-12-29T09:43:00;98051.63;;;5.02;50.56
34081;BME280;20358;50.272;19.026;2022-12-29T09:46:24;98043.09;;;4.99;50.47
34081;BME280;20358;50.272;19.026;2022-12-29T09:49:40;98053.41;;;5.02;50.65
34081;BME280;20358;50.272;19.026;2022-12-29T09:53:00;98048.00;;;5.05;50.65
34081;BME280;20358;50.272;19.026;2022-12-29T09:56:15;98035.78;;;5.05;50.80
34081;BME280;20358;50.272;19.026;2022-12-29T09:59:38;98052.13;;;5.09;50.69
34081;BME280;20358;50.272;19.026;2022-12-29T10:02:49;98040.47;;;5.14;50.62
34081;BME280;20358;50.272;19.026;2022-12-29T10:06:06;98042.84;;;5.19;50.61
34081;BME280;20358;50.272;19.026;2022-12-29T10:09:23;98038.63;;;5.16;50.70
34081;BME280;20358;50.272;19.026;2022-12-29T10:12:58;98041.81;;;5.21;50.58
34081;BME280;20358;50.272;19.026;2022-12-29T10:16:20;98035.72;;;5.21;50.75
34081;BME280;20358;50.272;19.026;2022-12-29T10:19:52;98028.53;;;5.24;50.70
34081;BME280;20358;50.272;19.026;2022-12-29T10:23:31;98034.72;;;5.23;50.79
34081;BME280;20358;50.272;19.026;2022-12-29T10:26:43;98030.78;;;5.30;51.05
34081;BME280;20358;50.272;19.026;2022-12-29T10:29:55;98031.22;;;5.38;50.64
34081;BME280;20358;50.272;19.026;2022-12-29T10:33:13;98026.22;;;5.49;50.81
34081;BME280;20358;50.272;19.026;2022-12-29T10:36:32;98023.59;;;5.64;50.68
34081;BME280;20358;50.272;19.026;2022-12-29T10:39:47;98013.44;;;5.73;51.87
34081;BME280;20358;50.272;19.026;2022-12-29T10:42:57;98019.50;;;5.74;50.56
34081;BME280;20358;50.272;19.026;2022-12-29T10:46:09;98014.47;;;5.71;50.39
34081;BME280;20358;50.272;19.026;2022-12-29T10:49:20;98006.50;;;6.14;54.17
34081;BME280;20358;50.272;19.026;2022-12-29T10:52:29;97991.88;;;6.51;56.21
34081;BME280;20358;50.272;19.026;2022-12-29T10:55:40;98000.53;;;7.07;49.81
34081;BME280;20358;50.272;19.026;2022-12-29T10:58:49;98021.53;;;7.07;48.17
34081;BME280;20358;50.272;19.026;2022-12-29T11:02:04;98014.56;;;6.93;48.39
34081;BME280;20358;50.272;19.026;2022-12-29T11:05:36;98003.50;;;6.61;48.32
34081;BME280;20358;50.272;19.026;2022-12-29T11:08:53;98007.84;;;6.89;50.74
34081;BME280;20358;50.272;19.026;2022-12-29T11:12:18;97997.22;;;7.30;49.74
34081;BME280;20358;50.272;19.026;2022-12-29T11:15:26;97997.03;;;7.58;47.99
34081;BME280;20358;50.272;19.026;2022-12-29T11:18:36;98006.31;;;7.51;46.48
34081;BME280;20358;50.272;19.026;2022-12-29T11:21:45;98006.06;;;7.29;46.95
34081;BME280;20358;50.272;19.026;2022-12-29T11:24:53;98014.63;;;7.06;48.26
34081;BME280;20358;50.272;19.026;2022-12-29T11:28:02;98005.53;;;6.85;47.62
34081;BME280;20358;50.272;19.026;2022-12-29T11:31:21;98012.00;;;6.79;48.48
34081;BME280;20358;50.272;19.026;2022-12-29T11:34:31;97999.16;;;6.74;48.27
34081;BME280;20358;50.272;19.026;2022-12-29T11:37:41;98003.56;;;6.74;48.42
34081;BME280;20358;50.272;19.026;2022-12-29T11:40:48;98003.41;;;6.77;48.74
34081;BME280;20358;50.272;19.026;2022-12-29T11:43:58;97970.53;;;6.57;48.29
34081;BME280;20358;50.272;19.026;2022-12-29T11:47:12;97999.94;;;6.77;48.68
34081;BME280;20358;50.272;19.026;2022-12-29T11:50:32;98000.66;;;6.79;48.67
34081;BME280;20358;50.272;19.026;2022-12-29T11:53:45;97991.63;;;6.83;48.12
34081;BME280;20358;50.272;19.026;2022-12-29T11:56:57;98003.63;;;6.87;48.72
34081;BME280;20358;50.272;19.026;2022-12-29T12:00:16;97999.84;;;6.91;48.02
34081;BME280;20358;50.272;19.026;2022-12-29T12:03:28;98008.94;;;6.99;48.89
34081;BME280;20358;50.272;19.026;2022-12-29T12:06:44;98005.06;;;7.05;48.21
34081;BME280;20358;50.272;19.026;2022-12-29T12:10:00;97998.66;;;7.09;47.83
34081;BME280;20358;50.272;19.026;2022-12-29T12:13:19;97999.94;;;7.16;47.67
34081;BME280;20358;50.272;19.026;2022-12-29T12:16:36;98003.13;;;7.21;47.52
34081;BME280;20358;50.272;19.026;2022-12-29T12:19:53;97999.25;;;7.26;47.75
34081;BME280;20358;50.272;19.026;2022-12-29T12:23:18;98005.84;;;7.32;47.38
34081;BME280;20358;50.272;19.026;2022-12-29T12:26:42;97999.59;;;7.47;47.84
34081;BME280;20358;50.272;19.026;2022-12-29T12:30:03;97991.19;;;7.42;46.97
34081;BME280;20358;50.272;19.026;2022-12-29T12:33:22;97990.53;;;7.51;47.88
34081;BME280;20358;50.272;19.026;2022-12-29T12:36:54;97987.59;;;7.43;47.92
34081;BME280;20358;50.272;19.026;2022-12-29T12:40:30;97992.63;;;7.46;47.25
34081;BME280;20358;50.272;19.026;2022-12-29T12:43:54;97994.34;;;7.47;48.67
34081;BME280;20358;50.272;19.026;2022-12-29T12:47:23;97977.59;;;7.48;48.75
34081;BME280;20358;50.272;19.026;2022-12-29T12:50:55;97982.78;;;7.50;49.90
34081;BME280;20358;50.272;19.026;2022-12-29T12:54:27;97966.69;;;7.54;49.79
34081;BME280;20358;50.272;19.026;2022-12-29T12:57:53;97970.56;;;7.61;48.63
34081;BME280;20358;50.272;19.026;2022-12-29T13:01:29;97976.66;;;7.74;49.62
34081;BME280;20358;50.272;19.026;2022-12-29T13:05:12;97984.53;;;7.87;47.76
34081;BME280;20358;50.272;19.026;2022-12-29T13:09:09;97976.56;;;7.88;49.04
34081;BME280;20358;50.272;19.026;2022-12-29T13:12:36;97988.22;;;8.10;48.44
34081;BME280;20358;50.272;19.026;2022-12-29T13:15:54;97981.38;;;8.07;47.25
34081;BME280;20358;50.272;19.026;2022-12-29T13:19:28;97977.81;;;8.08;49.37
34081;BME280;20358;50.272;19.026;2022-12-29T13:22:48;97982.97;;;8.10;47.08
34081;BME280;20358;50.272;19.026;2022-12-29T13:26:11;97980.44;;;8.08;47.03
34081;BME280;20358;50.272;19.026;2022-12-29T13:29:33;97986.56;;;8.09;47.66
34081;BME280;20358;50.272;19.026;2022-12-29T13:32:56;97984.41;;;8.26;52.60
34081;BME280;20358;50.272;19.026;2022-12-29T13:36:27;97983.34;;;8.29;48.17
34081;BME280;20358;50.272;19.026;2022-12-29T13:39:45;97980.00;;;8.27;47.02
34081;BME280;20358;50.272;19.026;2022-12-29T13:42:57;97985.38;;;8.13;47.06
34081;BME280;20358;50.272;19.026;2022-12-29T13:46:12;97987.63;;;8.06;47.70
34081;BME280;20358;50.272;19.026;2022-12-29T13:49:23;97991.16;;;7.92;48.16
34081;BME280;20358;50.272;19.026;2022-12-29T13:52:39;97997.69;;;7.87;47.81
34081;BME280;20358;50.272;19.026;2022-12-29T13:55:56;97991.50;;;7.75;48.84
34081;BME280;20358;50.272;19.026;2022-12-29T13:59:20;97991.38;;;7.64;49.14
34081;BME280;20358;50.272;19.026;2022-12-29T14:02:46;97999.16;;;7.53;49.56
34081;BME280;20358;50.272;19.026;2022-12-29T14:06:22;97993.47;;;7.47;49.70
34081;BME280;20358;50.272;19.026;2022-12-29T14:14:22;97990.19;;;7.30;49.14
34081;BME280;20358;50.272;19.026;2022-12-29T14:18:02;97989.13;;;7.20;49.35
34081;BME280;20358;50.272;19.026;2022-12-29T18:05:29;98012.56;;;5.44;53.98
34081;BME280;20358;50.272;19.026;2022-12-29T18:08:38;98011.03;;;5.40;54.33
34081;BME280;20358;50.272;19.026;2022-12-29T18:11:45;98019.41;;;5.31;54.34
34081;BME280;20358;50.272;19.026;2022-12-29T18:14:51;98021.91;;;5.19;54.40
34081;BME280;20358;50.272;19.026;2022-12-29T18:17:59;98015.97;;;5.15;54.69
34081;BME280;20358;50.272;19.026;2022-12-29T18:21:15;98008.13;;;5.15;54.82
34081;BME280;20358;50.272;19.026;2022-12-29T18:24:23;98017.69;;;5.16;54.86
34081;BME280;20358;50.272;19.026;2022-12-29T18:27:30;98017.63;;;5.02;54.80
34081;BME280;20358;50.272;19.026;2022-12-29T18:30:36;98034.25;;;5.01;54.85
34081;BME280;20358;50.272;19.026;2022-12-29T18:33:42;98018.91;;;4.95;54.88
34081;BME280;20358;50.272;19.026;2022-12-29T18:36:51;98028.53;;;4.95;54.88
34081;BME280;20358;50.272;19.026;2022-12-29T18:39:57;98024.38;;;4.90;54.94
34081;BME280;20358;50.272;19.026;2022-12-29T18:43:04;98018.09;;;4.79;55.34
34081;BME280;20358;50.272;19.026;2022-12-29T18:46:11;98012.00;;;4.78;55.29
34081;BME280;20358;50.272;19.026;2022-12-29T18:49:24;98013.53;;;4.82;55.32
34081;BME280;20358;50.272;19.026;2022-12-29T18:52:33;98011.16;;;4.78;55.25
34081;BME280;20358;50.272;19.026;2022-12-29T18:55:39;98014.31;;;4.69;55.24
34081;BME280;20358;50.272;19.026;2022-12-29T18:58:45;98000.22;;;4.56;55.11
34081;BME280;20358;50.272;19.026;2022-12-29T19:01:51;98012.19;;;4.60;55.16
34081;BME280;20358;50.272;19.026;2022-12-29T19:04:58;98000.06;;;4.59;55.87
34081;BME280;20358;50.272;19.026;2022-12-29T19:08:12;97992.97;;;4.61;55.11
34081;BME280;20358;50.272;19.026;2022-12-29T19:11:19;97986.22;;;4.57;55.37
34081;BME280;20358;50.272;19.026;2022-12-29T19:14:25;97973.66;;;4.48;54.88
34081;BME280;20358;50.272;19.026;2022-12-29T19:17:34;98013.72;;;4.64;55.13
34081;BME280;20358;50.272;19.026;2022-12-29T19:20:50;98019.22;;;4.59;55.22
34081;BME280;20358;50.272;19.026;2022-12-29T19:24:01;98029.84;;;4.56;54.95
34081;BME280;20358;50.272;19.026;2022-12-29T19:27:10;98032.78;;;4.50;54.96
34081;BME280;20358;50.272;19.026;2022-12-29T19:30:31;98038.88;;;4.51;55.22
34081;BME280;20358;50.272;19.026;2022-12-29T19:33:37;98035.97;;;4.40;55.74
34081;BME280;20358;50.272;19.026;2022-12-29T19:36:44;98040.72;;;4.49;55.10
34081;BME280;20358;50.272;19.026;2022-12-29T19:39:53;98040.53;;;4.52;55.13
34081;BME280;20358;50.272;19.026;2022-12-29T19:42:59;98047.88;;;4.45;55.69
34081;BME280;20358;50.272;19.026;2022-12-29T19:46:06;98020.81;;;4.31;55.92
34081;BME280;20358;50.272;19.026;2022-12-29T19:49:13;98029.75;;;4.42;55.94
34081;BME280;20358;50.272;19.026;2022-12-29T19:52:19;98030.50;;;4.44;55.45
34081;BME280;20358;50.272;19.026;2022-12-29T19:55:28;98036.94;;;4.39;55.52
34081;BME280;20358;50.272;19.026;2022-12-29T19:58:35;98038.00;;;4.35;56.08
34081;BME280;20358;50.272;19.026;2022-12-29T20:01:49;98027.88;;;4.28;55.29
34081;BME280;20358;50.272;19.026;2022-12-29T20:04:55;98028.53;;;4.16;55.72
34081;BME280;20358;50.272;19.026;2022-12-29T20:08:02;98033.19;;;4.11;55.75
34081;BME280;20358;50.272;19.026;2022-12-29T20:11:13;98019.19;;;4.12;55.20
34081;BME280;20358;50.272;19.026;2022-12-29T20:14:21;98004.69;;;4.07;55.07
34081;BME280;20358;50.272;19.026;2022-12-29T20:17:27;97998.50;;;4.08;55.20
34081;BME280;20358;50.272;19.026;2022-12-29T20:20:59;98013.63;;;4.18;55.88
34081;BME280;20358;50.272;19.026;2022-12-29T20:24:05;98017.78;;;4.22;55.08
34081;BME280;20358;50.272;19.026;2022-12-29T20:27:15;98023.00;;;4.22;55.25
34081;BME280;20358;50.272;19.026;2022-12-29T20:30:20;98025.44;;;4.25;54.73
34081;BME280;20358;50.272;19.026;2022-12-29T20:33:28;98030.75;;;4.24;55.56
34081;BME280;20358;50.272;19.026;2022-12-29T20:36:38;98026.84;;;4.15;54.99
34081;BME280;20358;50.272;19.026;2022-12-29T20:39:46;98016.38;;;4.15;54.86
34081;BME280;20358;50.272;19.026;2022-12-29T20:42:55;98007.63;;;4.16;55.72
34081;BME280;20358;50.272;19.026;2022-12-29T20:46:02;97999.03;;;4.14;55.59
34081;BME280;20358;50.272;19.026;2022-12-29T20:49:07;98002.56;;;4.13;55.55
34081;BME280;20358;50.272;19.026;2022-12-29T20:52:14;98005.53;;;4.07;55.42
34081;BME280;20358;50.272;19.026;2022-12-29T20:55:20;98011.41;;;3.95;55.60
34081;BME280;20358;50.272;19.026;2022-12-29T20:58:30;98030.03;;;3.89;56.32